Time;durP1;ratioP1;P1;durP2;ratioP2;P2;SDS_P1;SDS_P2;PMS_P1;PMS_P2;Temp;Humidity;BMP_temperature;BMP_pressure;BME280_temperature;BME280_humidity;BME280_pressure;Samples;Min_cycle;Max_cycle;Signal;HPM_P1;HPM_P2
2021/01/21 00:00:32;;;;;;;5.03;3.67;;;9.00;55.50;;;;;;6184838;23;20723;-75
2021/01/21 00:02:59;;;;;;;4.83;3.83;;;9.10;55.30;;;;;;6185030;23;20413;-74
2021/01/21 00:05:26;;;;;;;5.30;3.97;;;9.10;55.10;;;;;;6185343;23;20413;-74
2021/01/21 00:07:52;;;;;;;4.20;3.55;;;9.10;55.00;;;;;;6182991;23;20953;-74
2021/01/21 00:10:19;;;;;;;4.90;3.43;;;9.10;54.70;;;;;;6184995;23;20511;-74
2021/01/21 00:12:45;;;;;;;4.00;3.60;;;9.10;54.50;;;;;;6184965;23;20410;-75
2021/01/21 00:15:12;;;;;;;3.73;3.40;;;9.20;54.50;;;;;;6185112;23;20429;-75
2021/01/21 00:17:39;;;;;;;5.57;3.83;;;9.20;54.30;;;;;;6184611;23;20421;-75
2021/01/21 00:20:08;;;;;;;5.80;3.90;;;9.20;53.80;;;;;;6184908;23;20454;-74
2021/01/21 00:22:34;;;;;;;4.60;4.20;;;9.30;53.80;;;;;;6184666;23;20493;-75
2021/01/21 00:25:01;;;;;;;3.90;3.60;;;9.30;53.50;;;;;;6184473;23;20420;-75
2021/01/21 00:27:27;;;;;;;5.00;4.33;;;9.40;53.10;;;;;;6185113;23;20410;-76
2021/01/21 00:29:54;;;;;;;4.30;3.90;;;9.40;52.70;;;;;;6184899;23;20453;-76
2021/01/21 00:32:21;;;;;;;4.20;3.80;;;9.40;52.70;;;;;;6184595;23;20907;-75
2021/01/21 00:34:47;;;;;;;3.87;3.50;;;9.40;52.80;;;;;;6183413;23;20406;-75
2021/01/21 00:37:15;;;;;;;4.80;4.00;;;9.40;52.60;;;;;;6184922;23;20989;-75
2021/01/21 00:39:43;;;;;;;5.07;4.57;;;9.40;52.40;;;;;;6184349;23;20413;-75
2021/01/21 00:42:09;;;;;;;5.20;4.20;;;9.40;52.40;;;;;;6184790;23;20413;-75
2021/01/21 00:44:36;;;;;;;4.93;4.00;;;9.50;52.50;;;;;;6184834;23;20734;-75
2021/01/21 00:47:02;;;;;;;3.83;3.50;;;9.50;52.60;;;;;;6184781;23;20415;-75
2021/01/21 00:49:29;;;;;;;3.93;3.63;;;9.40;52.50;;;;;;6184986;23;20451;-75
2021/01/21 00:51:55;;;;;;;3.60;3.30;;;9.40;52.60;;;;;;6184982;23;20918;-75
2021/01/21 00:54:23;;;;;;;4.97;4.47;;;9.50;52.40;;;;;;6185200;23;20413;-74
2021/01/21 00:56:49;;;;;;;4.57;4.00;;;9.50;52.40;;;;;;6184343;23;20411;-75
2021/01/21 00:59:16;;;;;;;4.90;4.20;;;9.50;52.60;;;;;;6182433;23;20425;-74
2021/01/21 01:01:42;;;;;;;4.93;4.40;;;9.50;52.70;;;;;;6184748;23;20418;-75
2021/01/21 01:04:09;;;;;;;4.23;3.60;;;9.60;52.80;;;;;;6185815;23;20411;-75
2021/01/21 01:06:35;;;;;;;4.30;3.70;;;9.50;53.00;;;;;;6187049;23;20441;-75
2021/01/21 01:09:02;;;;;;;5.30;3.80;;;9.50;53.30;;;;;;6186732;23;20458;-75
2021/01/21 01:11:29;;;;;;;6.67;3.93;;;9.50;53.50;;;;;;6186369;23;20425;-75
2021/01/21 01:13:56;;;;;;;4.43;4.03;;;9.50;53.60;;;;;;6186580;23;20415;-75
2021/01/21 01:16:22;;;;;;;3.80;3.40;;;9.50;53.70;;;;;;6186837;23;20448;-75
2021/01/21 01:18:49;;;;;;;5.30;3.83;;;9.50;53.80;;;;;;6186816;23;20406;-74
2021/01/21 01:21:15;;;;;;;5.70;4.40;;;9.50;53.90;;;;;;6186492;23;20430;-75
2021/01/21 01:23:42;;;;;;;3.93;3.27;;;9.50;54.00;;;;;;6186375;23;20496;-75
2021/01/21 01:26:08;;;;;;;5.13;4.20;;;9.50;54.10;;;;;;6184434;23;20465;-73
2021/01/21 01:28:37;;;;;;;5.63;4.27;;;9.50;54.10;;;;;;6186723;23;20477;-73
2021/01/21 01:31:04;;;;;;;4.60;3.40;;;9.50;54.20;;;;;;6186982;23;20412;-73
2021/01/21 01:33:30;;;;;;;3.50;3.17;;;9.50;54.30;;;;;;6186529;23;20415;-74
2021/01/21 01:35:57;;;;;;;4.17;3.70;;;9.40;54.40;;;;;;6186183;23;20405;-74
2021/01/21 01:38:23;;;;;;;5.30;3.43;;;9.40;54.50;;;;;;6186752;23;20445;-74
2021/01/21 01:40:52;;;;;;;4.47;4.07;;;9.40;54.80;;;;;;6186294;23;20956;-74
2021/01/21 01:43:18;;;;;;;3.80;3.20;;;9.40;54.80;;;;;;6186424;23;20414;-74
2021/01/21 01:45:46;;;;;;;3.50;3.20;;;9.40;54.80;;;;;;6186935;23;20470;-74
2021/01/21 01:48:12;;;;;;;3.57;3.27;;;9.40;54.80;;;;;;6185947;23;20417;-75
2021/01/21 01:50:39;;;;;;;3.80;3.03;;;9.40;54.70;;;;;;6186218;23;20415;-74
2021/01/21 01:53:06;;;;;;;3.27;2.97;;;9.40;54.70;;;;;;6184162;23;20409;-74
2021/01/21 01:55:33;;;;;;;3.20;2.90;;;9.40;54.60;;;;;;6186419;23;20469;-74
2021/01/21 01:58:00;;;;;;;2.77;2.57;;;9.40;54.60;;;;;;6186509;23;20415;-74
2021/01/21 02:00:27;;;;;;;3.83;3.03;;;9.40;54.50;;;;;;6185697;23;20425;-73
2021/01/21 02:02:54;;;;;;;2.90;2.70;;;9.40;54.20;;;;;;6186644;23;20891;-74
2021/01/21 02:05:21;;;;;;;1.97;1.87;;;9.50;54.00;;;;;;6186421;23;20758;-74
2021/01/21 02:07:48;;;;;;;5.33;2.13;;;9.50;53.70;;;;;;6186100;23;20412;-74
2021/01/21 02:10:16;;;;;;;2.60;2.40;;;9.60;53.30;;;;;;6186261;23;20474;-73
2021/01/21 02:13:00;;;;;;;3.80;2.50;;;9.70;52.90;;;;;;6186079;23;20479;-75
2021/01/21 02:15:38;;;;;;;2.80;2.50;;;9.70;52.90;;;;;;6186429;23;20794;-74
2021/01/21 02:18:14;;;;;;;2.63;2.20;;;9.70;52.70;;;;;;6186449;23;20482;-74
2021/01/21 02:21:18;;;;;;;2.70;2.20;;;9.80;52.80;;;;;;6184296;23;20498;-74
2021/01/21 02:24:35;;;;;;;3.23;2.23;;;9.80;52.70;;;;;;6185909;23;20447;-74
2021/01/21 02:27:05;;;;;;;3.00;1.90;;;9.90;52.30;;;;;;6147766;23;20408;-73
2021/01/21 02:29:33;;;;;;;3.50;1.97;;;9.90;51.50;;;;;;6185754;23;20945;-73
2021/01/21 02:32:25;;;;;;;1.90;1.70;;;10.00;50.30;;;;;;6185924;23;20419;-73
2021/01/21 02:34:59;;;;;;;1.73;1.30;;;10.10;50.00;;;;;;6166661;23;20484;-74
2021/01/21 02:37:27;;;;;;;2.20;1.93;;;10.10;49.90;;;;;;6186319;23;20422;-73
2021/01/21 02:39:56;;;;;;;2.57;2.00;;;10.10;49.50;;;;;;6185587;23;20420;-74
2021/01/21 02:42:23;;;;;;;3.47;2.77;;;10.20;49.20;;;;;;6186344;23;20420;-73
2021/01/21 02:44:50;;;;;;;2.30;2.07;;;10.20;49.00;;;;;;6185257;23;20936;-74
2021/01/21 02:47:19;;;;;;;1.70;1.60;;;10.30;49.00;;;;;;6184834;23;20443;-73
2021/01/21 02:49:48;;;;;;;1.63;1.53;;;10.30;49.10;;;;;;6185824;23;20587;-73
2021/01/21 02:52:22;;;;;;;2.37;2.00;;;10.30;49.30;;;;;;6185757;23;20414;-74
2021/01/21 02:55:02;;;;;;;2.97;1.63;;;10.40;49.50;;;;;;6185367;23;20408;-73
2021/01/21 02:57:37;;;;;;;1.73;1.63;;;10.30;49.60;;;;;;6186123;23;20461;-74
2021/01/21 03:00:08;;;;;;;1.60;1.50;;;10.30;49.40;;;;;;6185672;23;20408;-73
2021/01/21 03:02:38;;;;;;;3.10;2.90;;;10.30;48.60;;;;;;6185457;23;20417;-74
2021/01/21 03:05:06;;;;;;;1.63;1.53;;;10.30;48.40;;;;;;6185724;23;20413;-74
2021/01/21 03:07:35;;;;;;;2.00;1.60;;;10.30;48.40;;;;;;6185645;23;20408;-73
2021/01/21 03:10:02;;;;;;;1.77;1.67;;;10.30;48.60;;;;;;6185368;23;20484;-73
2021/01/21 03:12:29;;;;;;;2.13;1.70;;;10.30;48.70;;;;;;6183630;23;20411;-73
2021/01/21 03:14:56;;;;;;;1.60;1.50;;;10.30;48.90;;;;;;6185493;23;20421;-73
2021/01/21 03:17:25;;;;;;;1.80;1.70;;;10.30;49.10;;;;;;6185369;23;20906;-73
2021/01/21 03:19:52;;;;;;;1.87;1.67;;;10.30;49.00;;;;;;6185991;23;20432;-73
2021/01/21 03:22:18;;;;;;;1.50;1.40;;;10.30;49.10;;;;;;6185355;23;20490;-75
2021/01/21 03:24:46;;;;;;;1.70;1.37;;;10.30;48.50;;;;;;6185498;23;20416;-73
2021/01/21 03:27:13;;;;;;;1.67;1.57;;;10.30;47.00;;;;;;6185495;23;20414;-73
2021/01/21 03:29:39;;;;;;;2.00;1.43;;;10.30;46.50;;;;;;6185269;23;20464;-73
2021/01/21 03:32:06;;;;;;;3.33;1.20;;;10.40;45.80;;;;;;6185643;23;20713;-73
2021/01/21 03:34:33;;;;;;;1.50;1.40;;;10.50;45.50;;;;;;6185311;23;20412;-73
2021/01/21 03:36:59;;;;;;;1.13;1.10;;;10.50;45.50;;;;;;6185391;23;20413;-74
2021/01/21 03:39:26;;;;;;;1.30;1.20;;;10.50;44.90;;;;;;6182816;23;20473;-73
2021/01/21 03:41:53;;;;;;;1.47;1.33;;;10.60;44.60;;;;;;6185478;23;20455;-73
2021/01/21 03:44:20;;;;;;;1.97;1.50;;;10.60;45.10;;;;;;6184706;23;20437;-73
2021/01/21 03:46:46;;;;;;;1.97;1.70;;;10.70;44.30;;;;;;6184857;23;20468;-74
2021/01/21 03:49:16;;;;;;;1.27;1.17;;;10.70;44.00;;;;;;6185011;23;20503;-73
2021/01/21 03:51:43;;;;;;;1.60;1.50;;;10.70;44.00;;;;;;6184883;23;20428;-74
2021/01/21 03:54:09;;;;;;;1.53;1.43;;;10.70;43.90;;;;;;6185298;23;20441;-74
2021/01/21 03:56:36;;;;;;;2.93;1.47;;;10.80;43.80;;;;;;6185180;23;20412;-74
2021/01/21 03:59:04;;;;;;;1.50;1.40;;;10.80;44.00;;;;;;6185202;23;20412;-73
2021/01/21 04:01:30;;;;;;;5.00;1.70;;;10.80;44.10;;;;;;6184828;23;20413;-74
2021/01/21 04:03:57;;;;;;;1.93;1.60;;;10.80;43.90;;;;;;6184742;23;20417;-74
2021/01/21 04:06:23;;;;;;;1.60;1.50;;;10.80;43.90;;;;;;6183302;23;20487;-73
2021/01/21 04:08:50;;;;;;;1.70;1.60;;;10.80;44.00;;;;;;6185113;23;20445;-74
2021/01/21 04:11:16;;;;;;;6.03;2.17;;;10.70;43.60;;;;;;6184778;23;20914;-74
2021/01/21 04:13:43;;;;;;;1.50;1.40;;;10.70;43.70;;;;;;6185327;23;20421;-73
2021/01/21 04:16:10;;;;;;;3.37;1.50;;;10.70;43.70;;;;;;6185172;23;20782;-73
2021/01/21 04:18:36;;;;;;;1.50;1.40;;;10.80;43.80;;;;;;6184941;23;20919;-73
2021/01/21 04:21:03;;;;;;;2.37;1.50;;;10.80;44.00;;;;;;6184614;23;20410;-73
2021/01/21 04:23:30;;;;;;;2.10;1.83;;;10.80;44.00;;;;;;6185032;23;20939;-73
2021/01/21 04:25:56;;;;;;;1.70;1.60;;;10.80;44.00;;;;;;6184379;23;20759;-73
2021/01/21 04:28:23;;;;;;;2.47;1.23;;;10.70;44.00;;;;;;6185157;23;20417;-73
2021/01/21 04:30:49;;;;;;;4.77;1.90;;;10.70;43.90;;;;;;6185279;23;20453;-73
2021/01/21 04:33:17;;;;;;;4.63;1.77;;;10.70;44.00;;;;;;6182445;23;20929;-73
2021/01/21 04:35:43;;;;;;;1.80;1.47;;;10.70;44.10;;;;;;6184662;23;20445;-73
2021/01/21 04:38:10;;;;;;;1.80;1.30;;;10.70;44.20;;;;;;6184514;23;20453;-73
2021/01/21 04:40:36;;;;;;;1.33;1.23;;;10.70;44.10;;;;;;6184974;23;20419;-73
2021/01/21 04:43:03;;;;;;;2.23;2.00;;;10.70;44.10;;;;;;6185122;23;20477;-74
2021/01/21 04:45:30;;;;;;;3.90;1.57;;;10.70;44.20;;;;;;6184960;23;20432;-73
2021/01/21 04:47:57;;;;;;;3.27;1.30;;;10.70;44.20;;;;;;6184229;23;20420;-73
2021/01/21 04:50:25;;;;;;;1.73;1.63;;;10.70;44.30;;;;;;6184386;23;20503;-73
2021/01/21 04:52:53;;;;;;;3.30;1.57;;;10.70;44.30;;;;;;6185204;23;20416;-73
2021/01/21 04:55:22;;;;;;;1.40;1.30;;;10.70;44.30;;;;;;6184209;23;20467;-73
2021/01/21 04:57:53;;;;;;;1.67;1.43;;;10.70;44.30;;;;;;6184352;23;20410;-73
2021/01/21 05:00:22;;;;;;;1.87;1.70;;;10.70;44.30;;;;;;6182206;23;20452;-73
2021/01/21 05:02:50;;;;;;;2.83;1.30;;;10.70;44.20;;;;;;6184842;23;20479;-73
2021/01/21 05:05:17;;;;;;;1.10;1.10;;;10.80;44.10;;;;;;6184515;23;20449;-73
2021/01/21 05:07:44;;;;;;;1.40;1.30;;;10.80;44.10;;;;;;6184750;23;20419;-73
2021/01/21 05:10:13;;;;;;;3.33;1.10;;;10.80;44.00;;;;;;6184537;23;20792;-73
2021/01/21 05:12:40;;;;;;;1.23;1.13;;;10.80;43.80;;;;;;6184406;23;20454;-73
2021/01/21 05:15:07;;;;;;;1.43;1.33;;;10.90;43.90;;;;;;6185108;23;20425;-73
2021/01/21 05:17:34;;;;;;;1.50;1.10;;;10.90;43.70;;;;;;6184590;23;20453;-73
2021/01/21 05:20:02;;;;;;;2.17;1.33;;;10.90;43.50;;;;;;6184385;23;20424;-73
2021/01/21 05:22:28;;;;;;;4.00;1.73;;;10.90;43.30;;;;;;6185119;23;20431;-73
2021/01/21 05:24:56;;;;;;;1.10;0.90;;;10.90;43.30;;;;;;6184213;23;20456;-73
2021/01/21 05:27:23;;;;;;;1.43;1.33;;;10.90;43.40;;;;;;6182936;23;20414;-73
2021/01/21 05:29:50;;;;;;;1.30;1.20;;;11.00;43.40;;;;;;6184265;23;20449;-72
2021/01/21 05:32:18;;;;;;;3.80;1.40;;;11.00;43.30;;;;;;6184107;23;20927;-73
2021/01/21 05:34:46;;;;;;;0.90;0.90;;;11.00;43.30;;;;;;6183673;23;20403;-74
2021/01/21 05:37:14;;;;;;;5.03;1.40;;;11.00;43.30;;;;;;6184038;23;20417;-74
2021/01/21 05:39:44;;;;;;;1.47;1.10;;;11.10;43.80;;;;;;6184062;23;20937;-74
2021/01/21 05:42:12;;;;;;;4.43;1.27;;;11.10;42.90;;;;;;6183834;23;20410;-73
2021/01/21 05:44:40;;;;;;;1.47;0.93;;;11.20;43.00;;;;;;6184532;23;20512;-73
2021/01/21 05:47:08;;;;;;;1.67;1.43;;;11.30;42.80;;;;;;6184414;23;20756;-73
2021/01/21 05:49:34;;;;;;;1.83;1.20;;;11.30;42.70;;;;;;6184664;23;20457;-74
2021/01/21 05:52:01;;;;;;;1.10;1.00;;;11.30;42.60;;;;;;6183514;23;20420;-74
2021/01/21 05:54:29;;;;;;;1.53;0.93;;;11.30;42.70;;;;;;6185754;23;20414;-74
2021/01/21 05:56:56;;;;;;;2.60;1.20;;;11.40;42.80;;;;;;6186559;23;20416;-75
2021/01/21 05:59:26;;;;;;;1.60;1.50;;;11.40;42.60;;;;;;6186189;23;20410;-75
2021/01/21 06:01:53;;;;;;;1.60;1.37;;;11.50;42.50;;;;;;6186287;23;20748;-74
2021/01/21 06:04:23;;;;;;;2.40;1.03;;;11.50;42.60;;;;;;6186129;23;20444;-73
2021/01/21 06:06:52;;;;;;;1.90;1.40;;;11.50;42.40;;;;;;6186216;23;20413;-74
2021/01/21 06:09:25;;;;;;;2.63;1.23;;;11.50;42.30;;;;;;6185977;23;20478;-74
2021/01/21 06:11:52;;;;;;;1.40;1.30;;;11.60;42.40;;;;;;6186085;23;20493;-73
2021/01/21 06:14:24;;;;;;;1.77;1.63;;;11.50;42.40;;;;;;6185825;23;20445;-73
2021/01/21 06:16:52;;;;;;;1.67;1.57;;;11.50;42.30;;;;;;6185506;23;20456;-74
2021/01/21 06:19:18;;;;;;;2.50;2.30;;;11.60;42.30;;;;;;6184011;23;20418;-73
2021/01/21 06:21:50;;;;;;;4.30;1.40;;;11.60;42.30;;;;;;6185827;23;20448;-73
2021/01/21 06:24:19;;;;;;;2.03;1.43;;;11.60;42.30;;;;;;6185972;23;20888;-74
2021/01/21 06:26:47;;;;;;;1.43;1.33;;;11.60;42.20;;;;;;6186239;23;20415;-74
2021/01/21 06:29:16;;;;;;;3.23;1.70;;;11.60;42.20;;;;;;6186152;23;20450;-74
2021/01/21 06:31:45;;;;;;;3.47;1.63;;;11.60;42.20;;;;;;6186162;23;20409;-74
2021/01/21 06:34:17;;;;;;;1.50;1.37;;;11.60;42.10;;;;;;6185545;23;20433;-74
2021/01/21 06:36:47;;;;;;;1.53;1.43;;;11.60;42.10;;;;;;6185402;23;20463;-73
2021/01/21 06:39:21;;;;;;;2.43;1.40;;;11.60;41.90;;;;;;6185094;23;20417;-74
2021/01/21 06:41:50;;;;;;;1.53;1.33;;;11.60;41.90;;;;;;6185033;23;20429;-74
2021/01/21 06:44:17;;;;;;;2.30;1.40;;;11.60;41.90;;;;;;6185850;23;20442;-74
2021/01/21 06:46:46;;;;;;;3.53;1.40;;;11.60;41.80;;;;;;6182596;23;20904;-74
2021/01/21 06:49:14;;;;;;;1.43;1.33;;;11.70;42.00;;;;;;6184833;23;21070;-74
2021/01/21 06:51:47;;;;;;;2.30;1.30;;;11.70;42.00;;;;;;6183417;23;20904;-73
2021/01/21 06:54:15;;;;;;;2.20;1.43;;;11.70;41.80;;;;;;6182316;23;20406;-74
2021/01/21 06:56:42;;;;;;;3.57;2.03;;;11.70;41.80;;;;;;6182565;23;20418;-73
2021/01/21 06:59:08;;;;;;;1.60;1.50;;;11.70;42.00;;;;;;6182176;23;20414;-74
2021/01/21 07:01:43;;;;;;;3.50;1.97;;;11.70;42.10;;;;;;6180762;23;20417;-73
2021/01/21 07:04:28;;;;;;;2.83;1.30;;;11.70;42.40;;;;;;6181344;23;20410;-73
2021/01/21 07:07:03;;;;;;;1.37;1.27;;;11.80;42.70;;;;;;6182123;23;20449;-73
2021/01/21 07:09:32;;;;;;;1.70;1.40;;;11.80;42.90;;;;;;6181673;23;20459;-73
2021/01/21 07:12:00;;;;;;;2.20;1.80;;;11.80;43.50;;;;;;6182335;23;20747;-73
2021/01/21 07:14:28;;;;;;;1.80;1.67;;;11.80;44.40;;;;;;6178265;23;20744;-73
2021/01/21 07:16:55;;;;;;;2.30;1.77;;;11.80;44.80;;;;;;6180815;23;20418;-73
2021/01/21 07:19:33;;;;;;;1.30;1.20;;;11.80;45.40;;;;;;6179016;23;20723;-73
2021/01/21 07:22:00;;;;;;;1.87;1.60;;;11.90;45.80;;;;;;6184565;23;20472;-70
2021/01/21 07:24:28;;;;;;;9.70;1.50;;;11.90;46.60;;;;;;6184820;23;20414;-71
2021/01/21 07:26:55;;;;;;;2.00;1.47;;;11.90;47.30;;;;;;6182095;23;20662;-72
2021/01/21 07:29:22;;;;;;;1.70;1.17;;;11.90;47.80;;;;;;6181116;23;20449;-72
2021/01/21 07:32:09;;;;;;;1.30;1.20;;;11.90;48.60;;;;;;6182776;23;20947;-71
2021/01/21 07:34:45;;;;;;;3.53;1.63;;;11.90;49.10;;;;;;6184564;23;20422;-71
2021/01/21 07:37:17;;;;;;;1.30;1.20;;;11.90;49.30;;;;;;6184841;23;20409;-71
2021/01/21 07:39:57;;;;;;;2.10;1.20;;;11.90;49.70;;;;;;6183352;23;20412;-72
2021/01/21 07:42:51;;;;;;;3.60;1.17;;;11.90;50.00;;;;;;6184964;23;20413;-72
2021/01/21 07:45:25;;;;;;;1.70;1.03;;;11.90;50.20;;;;;;6185119;23;20418;-72
2021/01/21 07:47:52;;;;;;;1.40;1.30;;;11.90;50.30;;;;;;6184985;23;20804;-72
2021/01/21 07:50:36;;;;;;;1.40;1.30;;;12.00;50.50;;;;;;6185020;23;20504;-72
2021/01/21 07:53:17;;;;;;;2.00;1.13;;;12.10;50.70;;;;;;6185235;23;20457;-72
2021/01/21 07:55:44;;;;;;;1.33;1.23;;;12.10;50.80;;;;;;6184044;23;20904;-72
2021/01/21 07:58:37;;;;;;;2.30;1.10;;;12.00;50.70;;;;;;6185194;23;20414;-72
2021/01/21 08:01:08;;;;;;;1.93;1.10;;;12.20;50.70;;;;;;6184792;23;20437;-72
2021/01/21 08:03:37;;;;;;;6.57;1.23;;;12.30;50.50;;;;;;6184621;23;20417;-72
2021/01/21 08:06:11;;;;;;;4.03;1.63;;;12.40;50.30;;;;;;6184956;23;20476;-71
2021/01/21 08:08:37;;;;;;;3.23;1.90;;;12.50;50.10;;;;;;6182403;23;20409;-74
2021/01/21 08:11:07;;;;;;;1.87;1.20;;;12.60;49.80;;;;;;6184750;23;20406;-72
2021/01/21 08:13:34;;;;;;;1.90;1.30;;;12.70;49.70;;;;;;6184827;23;20410;-73
2021/01/21 08:16:01;;;;;;;3.97;2.23;;;12.70;49.60;;;;;;6184750;23;20421;-71
2021/01/21 08:18:27;;;;;;;4.67;1.23;;;12.70;49.60;;;;;;6183031;23;20919;-73
2021/01/21 08:20:54;;;;;;;1.60;1.50;;;12.80;49.60;;;;;;6184160;23;20484;-70
2021/01/21 08:23:22;;;;;;;1.40;1.00;;;12.80;49.20;;;;;;6184157;23;20430;-71
2021/01/21 08:25:50;;;;;;;5.07;1.30;;;12.80;49.30;;;;;;6183480;23;20406;-71
2021/01/21 08:28:18;;;;;;;1.10;1.00;;;12.90;49.40;;;;;;6184878;23;20406;-71
2021/01/21 08:30:48;;;;;;;1.67;1.37;;;12.90;49.50;;;;;;6184577;23;20493;-72
2021/01/21 08:33:18;;;;;;;1.07;1.07;;;12.90;49.40;;;;;;6184250;23;20442;-73
2021/01/21 08:35:48;;;;;;;2.00;0.80;;;13.00;49.50;;;;;;6183346;23;20421;-72
2021/01/21 08:38:18;;;;;;;4.53;1.40;;;13.00;49.60;;;;;;6183849;23;20919;-73
2021/01/21 08:40:47;;;;;;;3.20;1.30;;;13.00;49.60;;;;;;6184771;23;20406;-71
2021/01/21 08:43:14;;;;;;;1.63;1.03;;;13.10;50.20;;;;;;6184323;23;20425;-72
2021/01/21 08:45:41;;;;;;;1.63;1.20;;;13.10;49.60;;;;;;6184567;23;20433;-71
2021/01/21 08:48:08;;;;;;;5.53;1.30;;;13.10;49.60;;;;;;6184824;23;20734;-72
2021/01/21 08:50:37;;;;;;;1.50;1.10;;;13.10;49.90;;;;;;6184367;23;20461;-71
2021/01/21 08:53:07;;;;;;;1.03;1.00;;;13.10;50.00;;;;;;6183629;23;20414;-71
2021/01/21 08:55:41;;;;;;;4.10;1.20;;;13.10;50.10;;;;;;6183784;23;20410;-71
2021/01/21 08:58:10;;;;;;;0.80;0.80;;;13.10;50.20;;;;;;6184198;23;20448;-71
2021/01/21 09:00:38;;;;;;;1.07;0.97;;;13.00;50.70;;;;;;6184472;23;20406;-72
2021/01/21 09:03:05;;;;;;;2.87;0.87;;;13.00;50.30;;;;;;6181804;23;20406;-72
2021/01/21 09:05:32;;;;;;;1.40;1.10;;;13.00;50.40;;;;;;6183569;23;20916;-71
2021/01/21 09:08:06;;;;;;;2.40;1.60;;;13.00;50.40;;;;;;6184186;23;20923;-71
2021/01/21 09:10:38;;;;;;;1.33;1.23;;;13.00;50.30;;;;;;6184078;23;20847;-72
2021/01/21 09:13:05;;;;;;;3.10;1.07;;;13.00;50.30;;;;;;6183605;23;20417;-72
2021/01/21 09:15:52;;;;;;;1.30;1.20;;;13.00;50.40;;;;;;6184084;23;20912;-71
2021/01/21 09:18:19;;;;;;;3.03;1.43;;;13.00;50.20;;;;;;6183882;23;20402;-72
2021/01/21 09:20:46;;;;;;;1.27;1.17;;;13.00;50.40;;;;;;6183164;23;20414;-72
2021/01/21 09:23:20;;;;;;;1.73;1.60;;;13.10;50.40;;;;;;6180336;23;20437;-72
2021/01/21 09:25:47;;;;;;;1.10;1.00;;;13.20;50.30;;;;;;6181725;23;20418;-72
2021/01/21 09:28:15;;;;;;;4.73;1.17;;;13.30;50.10;;;;;;6181074;23;20453;-72
2021/01/21 09:30:44;;;;;;;2.30;1.10;;;13.40;50.00;;;;;;6184043;23;20450;-73
2021/01/21 09:33:11;;;;;;;1.73;1.07;;;13.50;50.00;;;;;;6186067;23;20406;-72
2021/01/21 09:35:38;;;;;;;2.63;1.10;;;13.40;50.10;;;;;;6186111;23;20974;-73
2021/01/21 09:38:05;;;;;;;1.47;1.37;;;13.40;50.00;;;;;;6186368;23;20414;-73
2021/01/21 09:40:33;;;;;;;1.50;1.00;;;13.30;50.10;;;;;;6185603;23;20406;-73
2021/01/21 09:43:02;;;;;;;1.30;0.97;;;13.30;50.20;;;;;;6185320;23;20406;-73
2021/01/21 09:45:30;;;;;;;1.30;1.20;;;13.40;50.40;;;;;;6185957;23;20412;-73
2021/01/21 09:47:58;;;;;;;1.47;1.23;;;13.40;50.30;;;;;;6184889;23;20486;-73
2021/01/21 09:50:26;;;;;;;3.37;1.10;;;13.50;50.50;;;;;;6185920;23;20450;-73
2021/01/21 09:52:53;;;;;;;1.10;1.00;;;13.50;50.50;;;;;;6185979;23;20500;-73
2021/01/21 09:55:20;;;;;;;1.00;1.00;;;13.50;50.60;;;;;;6185154;23;20424;-73
2021/01/21 09:57:47;;;;;;;1.10;1.00;;;13.60;50.60;;;;;;6185043;23;20460;-72
2021/01/21 10:00:14;;;;;;;1.80;1.20;;;13.70;50.60;;;;;;6185840;23;20406;-73
2021/01/21 10:02:42;;;;;;;1.63;1.53;;;13.80;50.50;;;;;;6186094;23;20438;-73
2021/01/21 10:05:10;;;;;;;1.37;0.93;;;13.90;50.40;;;;;;6186551;23;20718;-73
2021/01/21 10:07:37;;;;;;;3.60;1.40;;;14.10;50.20;;;;;;6186554;23;20410;-73
2021/01/21 10:10:07;;;;;;;1.60;1.20;;;14.20;50.10;;;;;;6185440;23;20966;-73
2021/01/21 10:12:34;;;;;;;1.30;1.20;;;14.40;49.80;;;;;;6185447;23;20877;-73
2021/01/21 10:15:01;;;;;;;2.40;1.07;;;14.50;49.40;;;;;;6185429;23;20425;-73
2021/01/21 10:17:27;;;;;;;1.10;1.00;;;14.60;49.20;;;;;;6185710;23;20406;-73
2021/01/21 10:19:54;;;;;;;1.20;1.10;;;14.70;48.90;;;;;;6185529;23;20410;-73
2021/01/21 10:22:21;;;;;;;2.80;1.30;;;14.80;48.80;;;;;;6185775;23;20441;-73
2021/01/21 10:24:48;;;;;;;1.67;1.20;;;14.90;48.60;;;;;;6183118;23;20900;-73
2021/01/21 10:27:14;;;;;;;1.27;1.17;;;15.10;48.60;;;;;;6186111;23;20420;-73
2021/01/21 10:29:41;;;;;;;2.30;1.70;;;15.10;48.20;;;;;;6186100;23;20458;-73
2021/01/21 10:32:08;;;;;;;1.70;1.50;;;15.30;48.10;;;;;;6184963;23;20418;-73
2021/01/21 10:34:34;;;;;;;1.10;1.10;;;15.50;47.90;;;;;;6185324;23;20409;-73
2021/01/21 10:37:02;;;;;;;1.27;1.00;;;15.70;47.70;;;;;;6184822;23;20410;-73
2021/01/21 10:39:30;;;;;;;1.50;1.40;;;16.00;47.50;;;;;;6186061;23;20410;-73
2021/01/21 10:41:56;;;;;;;1.93;1.23;;;16.10;46.80;;;;;;6185383;23;20402;-74
2021/01/21 10:44:23;;;;;;;1.90;1.43;;;16.20;46.70;;;;;;6185570;23;20414;-73
2021/01/21 10:46:49;;;;;;;1.43;1.23;;;16.20;46.50;;;;;;6184910;23;20414;-73
2021/01/21 10:49:16;;;;;;;0.90;0.90;;;16.20;46.20;;;;;;6185771;23;20438;-73
2021/01/21 10:51:43;;;;;;;1.00;1.00;;;16.20;46.30;;;;;;6182566;23;20419;-73
2021/01/21 10:54:09;;;;;;;1.50;1.40;;;16.30;46.10;;;;;;6185240;23;21164;-71
2021/01/21 10:56:37;;;;;;;4.80;1.80;;;16.30;46.40;;;;;;6184326;23;20469;-73
2021/01/21 10:59:05;;;;;;;5.90;1.43;;;16.20;47.00;;;;;;6184428;23;20413;-73
2021/01/21 11:01:32;;;;;;;1.70;0.80;;;16.10;48.10;;;;;;6185248;23;20760;-73
2021/01/21 11:03:58;;;;;;;1.53;1.10;;;16.40;48.40;;;;;;6185230;23;20437;-73
2021/01/21 11:06:25;;;;;;;3.23;0.80;;;16.60;47.20;;;;;;6185055;23;20438;-73
2021/01/21 11:08:52;;;;;;;1.63;1.53;;;16.60;47.00;;;;;;6185027;23;20468;-72
2021/01/21 11:11:18;;;;;;;2.23;2.03;;;16.60;47.50;;;;;;6185309;23;20820;-73
2021/01/21 11:13:46;;;;;;;1.40;1.30;;;17.10;47.10;;;;;;6185188;23;20406;-72
2021/01/21 11:16:12;;;;;;;1.13;1.03;;;17.70;45.90;;;;;;6184895;23;20812;-73
2021/01/21 11:18:39;;;;;;;1.43;1.23;;;17.90;45.00;;;;;;6183035;23;20410;-74
2021/01/21 11:21:05;;;;;;;1.53;1.43;;;17.70;44.80;;;;;;6185136;23;20410;-74
2021/01/21 11:23:32;;;;;;;1.00;0.90;;;17.30;45.30;;;;;;6184137;23;20426;-73
2021/01/21 11:25:58;;;;;;;1.43;1.10;;;17.20;46.10;;;;;;6184453;23;20477;-73
2021/01/21 11:28:25;;;;;;;4.50;1.40;;;17.20;45.60;;;;;;6185177;23;20410;-73
2021/01/21 11:30:52;;;;;;;1.50;1.40;;;17.00;45.60;;;;;;6184699;23;20964;-75
2021/01/21 11:33:19;;;;;;;2.27;1.50;;;17.00;46.50;;;;;;6185031;23;20473;-73
2021/01/21 11:35:46;;;;;;;2.80;1.23;;;18.10;46.10;;;;;;6184819;23;20473;-73
2021/01/21 11:38:13;;;;;;;1.43;1.23;;;19.10;43.90;;;;;;6184762;23;20413;-73
2021/01/21 11:40:40;;;;;;;1.33;1.10;;;19.00;42.00;;;;;;6184305;23;20427;-73
2021/01/21 11:43:07;;;;;;;2.10;1.20;;;18.30;42.70;;;;;;6185048;23;20480;-73
2021/01/21 11:45:33;;;;;;;2.37;1.37;;;17.60;44.40;;;;;;6182630;23;20901;-73
2021/01/21 11:48:01;;;;;;;2.67;1.70;;;17.10;44.70;;;;;;6184909;23;20414;-73
2021/01/21 11:50:27;;;;;;;3.57;1.10;;;16.80;45.10;;;;;;6184020;23;20515;-73
2021/01/21 11:52:55;;;;;;;8.80;2.10;;;16.40;45.90;;;;;;6185527;23;20452;-73
2021/01/21 11:55:23;;;;;;;4.50;1.87;;;16.10;46.40;;;;;;6185071;23;20465;-73
2021/01/21 11:57:50;;;;;;;5.03;2.17;;;16.00;46.80;;;;;;6184770;23;20414;-73
2021/01/21 12:00:17;;;;;;;8.23;1.73;;;15.90;47.00;;;;;;6184742;23;20418;-73
2021/01/21 12:02:44;;;;;;;1.47;1.27;;;16.00;47.10;;;;;;6184906;23;20494;-73
2021/01/21 12:05:13;;;;;;;7.63;2.37;;;15.90;47.00;;;;;;6184762;23;20909;-73
2021/01/21 12:07:39;;;;;;;3.87;1.90;;;15.90;47.20;;;;;;6184834;23;20888;-74
2021/01/21 12:10:07;;;;;;;1.47;1.37;;;15.80;47.10;;;;;;6184749;23;20458;-73
2021/01/21 12:12:34;;;;;;;2.00;1.50;;;15.70;47.20;;;;;;6182677;23;20475;-73
2021/01/21 12:15:00;;;;;;;4.50;1.80;;;15.70;47.50;;;;;;6184438;23;20417;-73
2021/01/21 12:17:27;;;;;;;3.50;1.23;;;15.70;47.30;;;;;;6185218;23;20410;-73
2021/01/21 12:19:53;;;;;;;6.00;1.80;;;15.70;47.50;;;;;;6184924;23;20414;-72
2021/01/21 12:22:21;;;;;;;7.50;1.40;;;15.70;47.60;;;;;;6185003;23;20770;-73
2021/01/21 12:24:48;;;;;;;2.23;1.20;;;15.80;47.50;;;;;;6184774;23;20424;-73
2021/01/21 12:27:14;;;;;;;3.40;1.33;;;15.80;47.30;;;;;;6185086;23;20522;-73
2021/01/21 12:29:41;;;;;;;2.20;1.67;;;15.80;47.30;;;;;;6184690;23;20446;-73
2021/01/21 12:32:07;;;;;;;1.97;1.47;;;15.90;47.20;;;;;;6184753;23;20406;-73
2021/01/21 12:34:34;;;;;;;2.00;1.53;;;15.90;47.20;;;;;;6184934;23;20417;-74
2021/01/21 12:37:01;;;;;;;1.33;1.23;;;16.00;47.30;;;;;;6184588;23;20466;-72
2021/01/21 12:39:28;;;;;;;1.50;1.23;;;16.00;47.00;;;;;;6181960;23;20414;-72
2021/01/21 12:41:55;;;;;;;4.03;1.97;;;16.00;47.10;;;;;;6185011;23;20783;-72
2021/01/21 12:44:21;;;;;;;1.40;1.23;;;16.00;47.20;;;;;;6184437;23;20418;-72
2021/01/21 12:46:49;;;;;;;2.00;1.37;;;15.90;47.60;;;;;;6184097;23;20406;-72
2021/01/21 12:49:15;;;;;;;1.57;1.47;;;15.80;48.10;;;;;;6184055;23;20414;-71
2021/01/21 12:51:42;;;;;;;18.37;3.60;;;15.80;48.50;;;;;;6184229;23;20414;-71
2021/01/21 12:54:09;;;;;;;4.47;1.77;;;15.80;48.70;;;;;;6184644;23;20406;-71